Time;durP1;ratioP1;P1;durP2;ratioP2;P2;SDS_P1;SDS_P2;PMS_P1;PMS_P2;Temp;Humidity;BMP_temperature;BMP_pressure;BME280_temperature;BME280_humidity;BME280_pressure;Samples;Min_cycle;Max_cycle;Signal;HPM_P1;HPM_P2
2021/09/30 00:00:50;;;;;;;2.93;1.67;;;;;;;10.20;77.21;101278.09;5096092;28;20757;-79
2021/09/30 00:03:16;;;;;;;4.47;2.33;;;;;;;10.21;77.45;101281.63;5095364;28;20355;-79
2021/09/30 00:05:43;;;;;;;3.83;1.70;;;;;;;10.20;77.22;101282.56;5102498;28;20199;-79
2021/09/30 00:08:11;;;;;;;3.13;1.77;;;;;;;10.17;77.07;101283.53;5116888;28;20877;-79
2021/09/30 00:10:40;;;;;;;2.07;1.60;;;;;;;10.17;77.06;101288.84;5116644;28;20207;-79
2021/09/30 00:13:20;;;;;;;2.03;1.50;;;;;;;10.17;77.10;101288.84;5116793;28;20234;-79
2021/09/30 00:16:04;;;;;;;2.90;1.70;;;;;;;10.16;77.30;101302.25;5117069;28;20192;-79
2021/09/30 00:32:42;;;;;;;3.57;2.10;;;;;;;10.05;76.85;101302.78;5071014;28;20681;-79
2021/09/30 00:35:23;;;;;;;4.83;1.60;;;;;;;10.03;77.19;101305.50;5114792;28;20207;-79
2021/09/30 00:40:40;;;;;;;3.67;1.40;;;;;;;10.02;76.71;101314.47;5095318;28;20222;-79
2021/09/30 00:45:56;;;;;;;4.40;1.70;;;;;;;9.99;76.62;101317.25;5095687;28;20207;-80
2021/09/30 00:51:25;;;;;;;3.13;1.60;;;;;;;9.96;76.78;101320.06;5093033;28;20200;-80
2021/09/30 01:34:15;;;;;;;2.33;1.20;;;;;;;9.91;76.68;101366.47;5080318;28;20675;-79
2021/09/30 01:59:17;;;;;;;1.47;1.20;;;;;;;10.01;75.77;101373.06;5067014;28;20236;-79
2021/09/30 02:21:41;;;;;;;2.73;1.63;;;;;;;9.99;75.85;101382.94;5083939;28;20582;-79
2021/09/30 02:29:52;;;;;;;2.33;1.20;;;;;;;9.95;75.91;101386.66;5097286;28;20210;-79
2021/09/30 03:00:16;;;;;;;2.83;1.80;;;;;;;9.90;75.96;101405.50;5093476;28;20387;-79
2021/09/30 03:02:49;;;;;;;5.47;1.73;;;;;;;9.90;75.90;101391.34;5095277;28;20223;-79
2021/09/30 03:05:17;;;;;;;4.20;2.27;;;;;;;9.87;75.76;101404.78;5108470;28;20223;-80
2021/09/30 03:07:46;;;;;;;4.17;1.80;;;;;;;9.88;75.58;101409.19;5093898;28;20238;-80
2021/09/30 03:10:14;;;;;;;3.53;2.10;;;;;;;9.89;75.70;101413.56;5097343;28;20565;-80
2021/09/30 03:12:41;;;;;;;2.90;1.80;;;;;;;9.88;75.66;101417.16;5093769;28;20208;-79
2021/09/30 03:15:16;;;;;;;4.07;2.07;;;;;;;9.84;75.62;101418.28;5094405;28;20299;-80
2021/09/30 03:17:48;;;;;;;3.73;1.70;;;;;;;9.85;75.87;101430.63;5094758;28;20238;-80
2021/09/30 03:20:34;;;;;;;2.10;1.80;;;;;;;9.83;76.17;101424.53;5095038;28;20234;-80
2021/09/30 03:23:03;;;;;;;5.17;2.30;;;;;;;9.81;75.30;101432.56;5094639;28;20303;-80
2021/09/30 03:25:32;;;;;;;3.53;2.20;;;;;;;9.80;75.88;101433.50;5094731;28;20210;-80
2021/09/30 03:27:59;;;;;;;3.87;2.73;;;;;;;9.78;75.93;101431.84;5094707;28;20323;-80
2021/09/30 03:30:28;;;;;;;4.47;2.60;;;;;;;9.73;75.72;101435.59;5094678;28;20219;-80
2021/09/30 03:32:56;;;;;;;3.47;2.77;;;;;;;9.73;75.83;101451.53;5094916;28;20238;-80
2021/09/30 03:35:23;;;;;;;4.87;3.10;;;;;;;9.72;76.23;101447.16;5096392;28;20581;-79
2021/09/30 03:37:50;;;;;;;4.47;2.90;;;;;;;9.71;75.92;101442.78;5096678;28;20234;-79
2021/09/30 03:40:18;;;;;;;3.47;2.70;;;;;;;9.69;75.84;101441.13;5101550;28;20565;-80
2021/09/30 03:42:45;;;;;;;4.70;2.93;;;;;;;9.67;76.52;101454.50;5095200;28;20855;-80
2021/09/30 03:45:11;;;;;;;4.73;2.80;;;;;;;9.68;76.60;101458.88;5097756;28;20204;-80
2021/09/30 03:47:38;;;;;;;6.37;3.37;;;;;;;9.67;76.71;101462.47;5094216;28;20228;-80
2021/09/30 03:50:09;;;;;;;3.57;3.07;;;;;;;9.66;76.52;101463.44;5094690;28;20347;-80
2021/09/30 03:52:45;;;;;;;5.83;3.20;;;;;;;9.64;76.04;101464.44;5096477;28;20292;-79
2021/09/30 03:55:27;;;;;;;8.43;3.70;;;;;;;9.61;76.95;101465.44;5103735;28;20307;-80
2021/09/30 04:00:35;;;;;;;8.07;3.67;;;;;;;9.60;76.97;101469.03;5091636;28;20276;-80
2021/09/30 04:03:02;;;;;;;4.03;3.47;;;;;;;9.60;77.13;101460.19;5092461;28;20220;-80
2021/09/30 04:05:29;;;;;;;4.50;3.30;;;;;;;9.57;77.16;101457.66;5090466;28;20216;-80
2021/09/30 04:07:55;;;;;;;7.17;3.13;;;;;;;9.56;77.43;101472.75;5086105;28;20232;-80
2021/09/30 04:10:22;;;;;;;6.47;3.87;;;;;;;9.56;76.75;101472.75;5094208;28;20569;-80
2021/09/30 04:12:48;;;;;;;3.60;3.30;;;;;;;9.55;77.08;101473.69;5098222;28;20294;-79
2021/09/30 04:15:16;;;;;;;5.60;4.03;;;;;;;9.52;76.79;101484.44;5097435;28;20219;-79
2021/09/30 04:17:43;;;;;;;5.17;3.80;;;;;;;9.52;76.88;101476.47;5100807;28;20224;-80
2021/09/30 04:20:10;;;;;;;4.60;3.13;;;;;;;9.52;77.32;101484.44;5096098;28;20204;-79
2021/09/30 04:22:37;;;;;;;8.43;3.87;;;;;;;9.52;77.42;101487.13;5086943;28;20223;-80
2021/09/30 04:25:04;;;;;;;4.33;3.93;;;;;;;9.51;77.12;101492.50;5089900;28;20212;-80
2021/09/30 04:27:31;;;;;;;4.30;3.90;;;;;;;9.49;76.98;101492.59;5099554;28;20216;-80
2021/09/30 04:29:57;;;;;;;4.40;4.00;;;;;;;9.50;76.98;101493.44;5092285;28;20212;-81
2021/09/30 04:32:25;;;;;;;4.93;3.40;;;;;;;9.46;77.38;101498.03;5095840;28;20214;-79
2021/09/30 04:34:52;;;;;;;4.60;3.77;;;;;;;9.46;77.27;101498.03;5093342;28;20224;-79
2021/09/30 04:37:18;;;;;;;4.57;3.70;;;;;;;9.44;76.93;101505.22;5091751;28;20217;-79
2021/09/30 04:39:46;;;;;;;5.73;4.07;;;;;;;9.44;77.38;101501.69;5091910;28;20290;-79
2021/09/30 04:42:13;;;;;;;6.17;4.17;;;;;;;9.45;76.63;101504.28;5080943;28;20233;-79
2021/09/30 04:44:39;;;;;;;6.20;3.87;;;;;;;9.44;77.14;101504.38;5089271;28;20204;-79
2021/09/30 04:47:06;;;;;;;5.00;3.60;;;;;;;9.41;77.37;101510.69;5086216;28;20216;-79
2021/09/30 04:49:33;;;;;;;6.40;4.03;;;;;;;9.40;77.46;101515.13;5089187;28;20566;-80
2021/09/30 04:52:00;;;;;;;5.57;4.30;;;;;;;9.40;77.28;101519.59;5092455;28;20538;-80
2021/09/30 04:54:27;;;;;;;6.07;4.17;;;;;;;9.38;77.33;101524.09;5093000;28;20210;-80
2021/09/30 04:56:53;;;;;;;6.13;4.37;;;;;;;9.37;77.13;101511.75;5090660;28;20591;-79
2021/09/30 04:59:20;;;;;;;7.30;3.63;;;;;;;9.37;77.30;101515.25;5087406;28;20209;-79
2021/09/30 05:01:46;;;;;;;5.63;4.30;;;;;;;9.35;77.25;101516.25;5098880;28;20200;-79
2021/09/30 05:04:13;;;;;;;4.40;3.90;;;;;;;9.36;77.25;101510.00;5086856;28;20686;-80
2021/09/30 05:06:41;;;;;;;7.07;4.10;;;;;;;9.35;77.49;101524.22;5087484;28;20220;-79
2021/09/30 05:09:07;;;;;;;6.47;4.23;;;;;;;9.34;77.20;101522.50;5092170;28;20287;-81
2021/09/30 05:11:35;;;;;;;4.97;4.50;;;;;;;9.32;77.46;101522.56;5093120;28;20242;-80
2021/09/30 05:14:02;;;;;;;5.80;4.13;;;;;;;9.34;77.61;101527.81;5086162;28;20292;-79
2021/09/30 05:16:29;;;;;;;6.30;4.97;;;;;;;9.33;77.44;101520.78;5091415;28;20882;-81
2021/09/30 05:18:57;;;;;;;4.83;4.43;;;;;;;9.33;77.35;101521.63;5088071;28;20197;-80
2021/09/30 05:21:24;;;;;;;7.73;4.67;;;;;;;9.33;78.13;101526.09;5094317;28;20204;-80
2021/09/30 05:23:52;;;;;;;6.00;5.40;;;;;;;9.33;77.80;101537.59;5093833;28;20251;-79
2021/09/30 05:26:19;;;;;;;5.00;4.50;;;;;;;9.33;77.95;101537.59;5087249;28;20209;-77
2021/09/30 05:28:46;;;;;;;6.33;4.73;;;;;;;9.34;77.88;101541.97;5090907;28;20377;-78
2021/09/30 05:31:12;;;;;;;8.40;4.80;;;;;;;9.34;78.51;101539.31;5095347;28;20670;-78
2021/09/30 05:33:39;;;;;;;6.47;4.40;;;;;;;9.35;78.31;101535.72;5099665;28;20560;-78
2021/09/30 05:36:06;;;;;;;5.80;4.53;;;;;;;9.36;78.14;101540.13;5090255;28;20223;-77
2021/09/30 05:38:33;;;;;;;4.87;4.40;;;;;;;9.38;78.05;101542.72;5095174;28;20228;-77
2021/09/30 05:41:01;;;;;;;8.50;5.00;;;;;;;9.42;78.24;101554.09;5090463;28;20202;-77
2021/09/30 05:43:30;;;;;;;5.13;4.47;;;;;;;9.42;78.31;101554.09;5099083;28;20220;-79
2021/09/30 05:45:57;;;;;;;5.80;4.37;;;;;;;9.43;78.28;101547.84;5089383;28;20197;-79
2021/09/30 05:48:24;;;;;;;5.53;4.70;;;;;;;9.45;77.85;101546.84;5089715;28;20256;-78
2021/09/30 05:50:50;;;;;;;8.70;4.50;;;;;;;9.47;78.00;101542.31;5088522;28;20200;-77
2021/09/30 05:53:18;;;;;;;7.53;4.47;;;;;;;9.49;78.37;101553.75;5083810;28;20204;-77
2021/09/30 05:55:44;;;;;;;6.57;4.80;;;;;;;9.51;77.82;101543.03;5079644;28;20556;-77
2021/09/30 05:58:13;;;;;;;5.00;4.50;;;;;;;9.51;78.26;101549.19;5091236;28;20220;-77
2021/09/30 06:00:49;;;;;;;5.53;4.63;;;;;;;9.54;78.13;101548.22;5084244;28;20200;-78
2021/09/30 06:11:44;;;;;;;7.87;4.00;;;;;;;9.61;78.10;101539.91;5084991;28;20200;-78
2021/09/30 06:14:14;;;;;;;6.47;4.17;;;;;;;9.63;77.36;101546.03;5087235;28;20207;-77
2021/09/30 06:16:45;;;;;;;4.60;4.20;;;;;;;9.63;77.83;101548.69;5085731;28;20223;-78
2021/09/30 06:19:13;;;;;;;4.73;4.23;;;;;;;9.65;77.84;101549.47;5087220;28;20202;-78
2021/09/30 06:21:40;;;;;;;6.03;3.93;;;;;;;9.67;77.63;101552.91;5080080;28;20318;-78
2021/09/30 06:24:07;;;;;;;6.10;4.50;;;;;;;9.68;77.71;101551.97;5089034;28;20232;-78
2021/09/30 06:26:34;;;;;;;5.03;4.20;;;;;;;9.69;77.83;101563.47;5086522;28;20239;-78
2021/09/30 06:29:01;;;;;;;6.03;4.13;;;;;;;9.71;77.53;101557.16;5084694;28;20220;-79
2021/09/30 06:31:29;;;;;;;4.97;4.50;;;;;;;9.74;78.18;101565.00;5086034;28;20216;-78
2021/09/30 06:33:55;;;;;;;7.50;4.60;;;;;;;9.76;77.53;101559.63;5090761;28;20200;-78
2021/09/30 06:36:22;;;;;;;8.07;4.17;;;;;;;9.81;77.68;101575.38;5088533;28;20206;-77
2021/09/30 06:38:49;;;;;;;7.27;4.17;;;;;;;9.82;77.44;101577.09;5089833;28;20673;-80
2021/09/30 06:41:18;;;;;;;7.80;4.30;;;;;;;9.84;77.77;101589.41;5090833;28;20208;-78
2021/09/30 06:43:46;;;;;;;6.77;4.10;;;;;;;9.86;78.01;101574.22;5086668;28;20225;-78
2021/09/30 06:46:12;;;;;;;6.73;4.30;;;;;;;9.90;78.09;101581.13;5084460;28;20207;-82
2021/09/30 06:48:41;;;;;;;6.33;2.90;;;;;;;9.97;77.95;101573.75;5082236;28;20228;-80
2021/09/30 06:51:09;;;;;;;4.37;3.83;;;;;;;10.01;77.38;101588.63;5079870;28;20216;-80
2021/09/30 06:53:35;;;;;;;5.67;3.57;;;;;;;10.04;77.79;101578.69;5086054;28;20203;-82
2021/09/30 06:56:05;;;;;;;6.07;3.53;;;;;;;10.09;77.57;101589.13;5086835;28;20204;-81
2021/09/30 06:58:35;;;;;;;5.83;3.90;;;;;;;10.14;77.26;101589.78;5085125;28;20235;-83
2021/09/30 07:01:02;;;;;;;5.97;3.83;;;;;;;10.14;77.58;101603.09;5084891;28;20654;-80
2021/09/30 07:03:31;;;;;;;8.80;4.07;;;;;;;10.15;77.07;101618.13;5082784;28;20276;-80
2021/09/30 07:05:59;;;;;;;4.23;3.47;;;;;;;10.17;77.45;101602.97;5085435;28;20296;-81
2021/09/30 07:08:26;;;;;;;6.13;3.97;;;;;;;10.16;77.26;101603.91;5081843;28;20251;-83
2021/09/30 07:10:53;;;;;;;5.20;4.17;;;;;;;10.17;77.35;101608.28;5088360;28;20579;-81
2021/09/30 07:13:19;;;;;;;8.30;4.40;;;;;;;10.20;77.17;101609.97;5082319;28;20204;-82
2021/09/30 07:15:46;;;;;;;6.67;4.30;;;;;;;10.20;77.05;101600.19;5082281;28;20196;-81
2021/09/30 07:18:18;;;;;;;6.10;4.03;;;;;;;10.18;76.95;101615.34;5079497;28;20325;-80
2021/09/30 07:20:45;;;;;;;6.03;4.20;;;;;;;10.20;77.54;101608.19;5083664;28;20197;-81
2021/09/30 07:23:13;;;;;;;6.97;4.07;;;;;;;10.26;77.45;101613.19;5083161;28;20224;-81
2021/09/30 07:25:40;;;;;;;5.70;4.10;;;;;;;10.31;77.62;101603.19;5089951;28;20207;-83
2021/09/30 07:28:07;;;;;;;6.90;4.07;;;;;;;10.35;77.40;101612.78;5085494;28;20220;-82
2021/09/30 07:30:33;;;;;;;5.93;3.87;;;;;;;10.43;77.39;101604.41;5082515;28;20239;-82
2021/09/30 07:33:00;;;;;;;8.43;3.90;;;;;;;10.55;77.58;101613.63;5083353;28;20196;-82
2021/09/30 07:35:27;;;;;;;8.83;3.50;;;;;;;10.64;77.31;101608.72;5083776;28;20208;-84
2021/09/30 07:37:57;;;;;;;5.87;3.33;;;;;;;10.74;77.08;101609.16;5082811;28;20224;-84
2021/09/30 07:40:27;;;;;;;4.43;3.00;;;;;;;10.83;76.74;101607.81;5082528;28;20205;-83
2021/09/30 07:43:03;;;;;;;5.50;2.70;;;;;;;10.92;76.32;101605.59;5084976;28;20219;-82
2021/09/30 07:45:30;;;;;;;4.83;2.80;;;;;;;11.02;76.09;101613.97;5089638;28;20233;-83
2021/09/30 07:47:59;;;;;;;4.57;2.80;;;;;;;11.11;75.27;101625.03;5086936;28;20224;-83
2021/09/30 07:50:25;;;;;;;4.33;2.50;;;;;;;11.20;75.06;101625.50;5084164;28;20204;-82
2021/09/30 07:52:52;;;;;;;5.10;2.63;;;;;;;11.33;74.71;101621.28;5089172;28;20295;-82
2021/09/30 07:55:21;;;;;;;6.27;2.40;;;;;;;11.42;74.02;101619.03;5084385;28;20353;-82
2021/09/30 07:57:49;;;;;;;7.33;2.93;;;;;;;11.51;73.79;101628.34;5086582;28;20225;-81
2021/09/30 08:00:16;;;;;;;3.70;2.20;;;;;;;11.60;73.35;101633.22;5087879;28;20201;-82
2021/09/30 08:02:43;;;;;;;10.60;2.43;;;;;;;11.70;73.28;101633.56;5086199;28;20198;-82
2021/09/30 08:05:10;;;;;;;5.43;2.07;;;;;;;11.82;72.75;101643.66;5085320;28;20226;-82
2021/09/30 08:07:38;;;;;;;3.03;2.07;;;;;;;11.90;72.52;101621.88;5081512;28;20269;-82
2021/09/30 08:10:07;;;;;;;4.50;2.20;;;;;;;11.98;71.97;101635.69;5086824;28;20201;-83
2021/09/30 08:12:33;;;;;;;4.00;2.20;;;;;;;12.06;71.70;101642.34;5085206;28;20217;-82
2021/09/30 08:15:01;;;;;;;5.13;2.17;;;;;;;12.16;71.38;101648.06;5087660;28;20204;-82
2021/09/30 08:17:28;;;;;;;5.63;1.63;;;;;;;12.26;70.96;101649.28;5091603;28;20225;-81
2021/09/30 08:19:54;;;;;;;6.20;2.10;;;;;;;12.31;70.71;101647.22;5104431;28;20205;-81
2021/09/30 08:22:21;;;;;;;6.77;2.27;;;;;;;12.38;70.24;101650.41;5094594;28;20206;-82
2021/09/30 08:24:47;;;;;;;6.77;1.97;;;;;;;12.44;70.07;101653.59;5093834;28;20227;-82
2021/09/30 08:27:14;;;;;;;6.47;1.97;;;;;;;12.54;69.53;101666.47;5093580;28;20240;-81
2021/09/30 08:29:40;;;;;;;6.37;2.07;;;;;;;12.62;69.26;101666.91;5092594;28;20200;-81
2021/09/30 08:32:08;;;;;;;4.57;2.20;;;;;;;12.64;68.42;101663.19;5083137;28;20625;-82
2021/09/30 08:34:35;;;;;;;4.53;2.07;;;;;;;12.76;68.54;101664.31;5088322;28;20197;-82
2021/09/30 08:37:02;;;;;;;4.43;1.70;;;;;;;12.86;68.43;101654.84;5092144;28;20224;-81
2021/09/30 08:39:28;;;;;;;6.13;2.33;;;;;;;12.97;68.12;101657.75;5081498;28;20294;-82
2021/09/30 08:41:56;;;;;;;6.93;1.90;;;;;;;13.08;67.66;101668.69;5087772;28;20197;-80
2021/09/30 08:44:22;;;;;;;4.27;1.90;;;;;;;13.15;67.67;101667.41;5085291;28;20693;-82
2021/09/30 08:46:49;;;;;;;6.73;2.10;;;;;;;13.23;67.13;101669.66;5082098;28;20836;-82
2021/09/30 08:49:17;;;;;;;3.73;2.03;;;;;;;13.27;66.37;101671.19;5091064;28;20592;-82
2021/09/30 08:51:44;;;;;;;7.03;1.90;;;;;;;13.29;65.95;101663.06;5082908;28;20201;-82
2021/09/30 08:54:10;;;;;;;6.90;2.30;;;;;;;13.32;66.28;101673.59;5081135;28;20200;-81
2021/09/30 08:56:37;;;;;;;5.23;1.90;;;;;;;13.32;66.14;101673.59;5082241;28;20206;-81
2021/09/30 08:59:18;;;;;;;5.37;1.67;;;;;;;13.40;66.18;101676.69;5083236;28;20189;-82
2021/09/30 09:01:47;;;;;;;8.50;2.00;;;;;;;13.44;66.19;101679.09;5087851;28;20211;-81
2021/09/30 09:04:20;;;;;;;3.10;1.60;;;;;;;13.50;65.74;101680.53;5086769;28;20274;-82
2021/09/30 09:06:48;;;;;;;5.07;1.77;;;;;;;13.55;65.99;101682.00;5086566;28;20216;-81
2021/09/30 09:09:23;;;;;;;6.23;1.60;;;;;;;13.62;66.08;101678.94;5084917;28;20201;-81
2021/09/30 09:11:50;;;;;;;5.73;1.73;;;;;;;13.71;65.59;101687.31;5082624;28;20204;-82
2021/09/30 09:14:24;;;;;;;6.20;1.70;;;;;;;13.80;65.16;101677.84;5089182;28;20203;-83
2021/09/30 09:16:56;;;;;;;4.20;1.60;;;;;;;13.86;64.50;101685.50;5082801;28;20227;-83
2021/09/30 09:19:37;;;;;;;6.30;2.00;;;;;;;13.84;63.82;101680.25;5088049;28;20208;-79
2021/09/30 09:22:11;;;;;;;5.93;2.07;;;;;;;13.79;63.59;101678.81;5084075;28;20207;-81
2021/09/30 09:24:56;;;;;;;3.80;1.60;;;;;;;13.81;63.72;101680.44;5091234;28;20223;-82
2021/09/30 09:27:23;;;;;;;6.80;2.27;;;;;;;13.83;63.24;101685.69;5084696;28;20233;-82
2021/09/30 09:29:50;;;;;;;8.53;2.10;;;;;;;13.82;63.31;101682.16;5085082;28;20196;-84
2021/09/30 09:32:16;;;;;;;8.10;2.07;;;;;;;13.84;63.19;101690.97;5091075;28;20214;-82
2021/09/30 09:34:44;;;;;;;8.87;2.20;;;;;;;13.83;63.76;101675.84;5087741;28;20192;-83
2021/09/30 09:37:22;;;;;;;4.07;1.70;;;;;;;13.84;63.46;101687.41;5100642;28;20223;-82
2021/09/30 09:39:49;;;;;;;5.80;1.97;;;;;;;13.88;63.32;101683.59;5082179;28;20207;-84
2021/09/30 09:42:18;;;;;;;5.13;1.60;;;;;;;13.85;63.04;101678.44;5094578;28;20212;-84
2021/09/30 09:44:53;;;;;;;7.27;2.03;;;;;;;13.87;63.13;101679.19;5093560;28;20228;-84
2021/09/30 09:47:21;;;;;;;5.77;1.60;;;;;;;13.85;63.31;101690.00;5094647;28;20594;-84
2021/09/30 09:50:08;;;;;;;5.03;1.80;;;;;;;13.84;63.24;101682.94;5094182;28;20781;-84
2021/09/30 09:52:41;;;;;;;5.50;1.47;;;;;;;13.89;63.18;101679.97;5094551;28;20220;-84
2021/09/30 09:55:10;;;;;;;6.77;1.80;;;;;;;13.91;62.55;101686.09;5080337;28;20197;-81
2021/09/30 09:57:40;;;;;;;6.27;1.50;;;;;;;13.90;62.41;101682.56;5094438;28;20740;-83
2021/09/30 10:00:12;;;;;;;9.43;1.40;;;;;;;13.96;62.84;101689.38;5093565;28;20303;-81
2021/09/30 10:02:39;;;;;;;6.13;1.70;;;;;;;14.04;62.43;101678.16;5091453;28;20204;-82
2021/09/30 10:05:07;;;;;;;5.40;1.50;;;;;;;14.12;62.60;101671.41;5093091;28;20224;-84
2021/09/30 10:07:34;;;;;;;4.00;1.30;;;;;;;14.19;62.54;101682.56;5093505;28;20228;-81
2021/09/30 10:10:01;;;;;;;5.43;1.57;;;;;;;14.26;62.19;101683.94;5093430;28;20216;-83
2021/09/30 10:12:28;;;;;;;3.67;1.53;;;;;;;14.25;60.87;101677.72;5093473;28;20208;-82
2021/09/30 10:14:55;;;;;;;5.27;1.63;;;;;;;14.30;60.77;101682.78;5093361;28;20208;-82
2021/09/30 10:17:21;;;;;;;6.00;1.63;;;;;;;14.35;60.92;101685.16;5092839;28;20246;-80
2021/09/30 10:19:48;;;;;;;6.80;1.77;;;;;;;14.42;61.05;101700.81;5093496;28;20212;-81
2021/09/30 10:22:16;;;;;;;5.30;1.63;;;;;;;14.47;60.19;101695.16;5093991;28;20220;-81
2021/09/30 10:24:45;;;;;;;7.27;2.03;;;;;;;14.48;59.97;101696.88;5083744;28;20690;-81
2021/09/30 10:27:12;;;;;;;6.10;1.17;;;;;;;14.48;59.32;101689.72;5094416;28;20236;-81
2021/09/30 10:29:43;;;;;;;4.10;1.47;;;;;;;14.51;59.11;101684.13;5093699;28;20654;-81
2021/09/30 10:32:10;;;;;;;2.63;1.10;;;;;;;14.51;58.01;101681.44;5093691;28;20212;-83
2021/09/30 10:34:40;;;;;;;3.20;1.07;;;;;;;14.51;57.40;101697.53;5093447;28;20811;-83
2021/09/30 10:37:19;;;;;;;4.30;1.10;;;;;;;14.52;57.40;101687.66;5093832;28;20228;-81
2021/09/30 10:39:48;;;;;;;3.83;1.27;;;;;;;14.55;57.39;101701.75;5092485;28;20303;-83
2021/09/30 10:42:42;;;;;;;2.67;0.87;;;;;;;14.64;57.66;101688.72;5093000;28;20230;-83
2021/09/30 10:45:13;;;;;;;2.80;1.13;;;;;;;14.70;57.00;101683.81;5082608;28;20224;-84
2021/09/30 10:47:41;;;;;;;4.33;1.43;;;;;;;14.74;56.69;101685.34;5092092;28;20228;-83
2021/09/30 10:50:08;;;;;;;5.20;1.33;;;;;;;14.77;56.12;101686.97;5093173;28;20219;-83
2021/09/30 10:52:49;;;;;;;3.43;1.43;;;;;;;14.82;56.98;101693.78;5092751;28;20203;-82
2021/09/30 10:55:30;;;;;;;4.77;1.20;;;;;;;14.88;56.92;101681.78;5081691;28;20205;-81
2021/09/30 10:57:58;;;;;;;5.57;1.30;;;;;;;14.92;56.77;101688.66;5092859;28;20315;-82
2021/09/30 11:00:51;;;;;;;3.97;1.33;;;;;;;14.93;56.29;101677.84;5092833;28;20214;-83
2021/09/30 11:03:24;;;;;;;6.40;1.40;;;;;;;14.96;55.85;101690.19;5093245;28;20204;-83
2021/09/30 11:06:24;;;;;;;4.37;1.20;;;;;;;14.98;55.56;101696.31;5090107;28;20224;-81
2021/09/30 11:09:14;;;;;;;2.80;0.97;;;;;;;14.98;55.44;101690.97;5092748;28;20212;-81
2021/09/30 11:11:42;;;;;;;7.43;1.97;;;;;;;15.02;54.74;101683.56;5093094;28;20218;-83
2021/09/30 11:14:25;;;;;;;3.03;1.27;;;;;;;15.04;55.06;101681.66;5102656;28;20784;-81
2021/09/30 11:16:55;;;;;;;6.67;1.97;;;;;;;15.10;54.73;101691.97;5096427;28;20224;-81
2021/09/30 11:19:38;;;;;;;7.87;1.30;;;;;;;15.13;54.65;101687.25;5084154;28;20202;-82
2021/09/30 11:22:06;;;;;;;6.67;1.90;;;;;;;15.13;54.06;101681.03;5088518;28;20235;-80
2021/09/30 11:24:37;;;;;;;3.03;1.17;;;;;;;15.17;54.11;101679.88;5093872;28;20302;-81
2021/09/30 11:27:15;;;;;;;4.20;1.17;;;;;;;15.22;54.29;101689.34;5087421;28;20586;-82
2021/09/30 11:29:42;;;;;;;3.13;1.37;;;;;;;15.23;54.15;101703.59;5086044;28;20200;-83
2021/09/30 11:32:26;;;;;;;4.87;1.53;;;;;;;15.24;54.22;101695.44;5085559;28;20209;-82
2021/09/30 11:34:56;;;;;;;6.83;1.50;;;;;;;15.25;53.73;101693.63;5085247;28;20206;-84
2021/09/30 11:37:26;;;;;;;4.37;1.33;;;;;;;15.21;53.91;101698.38;5090534;28;20378;-83
2021/09/30 11:39:56;;;;;;;7.37;1.53;;;;;;;15.17;53.55;101694.16;5092350;28;20227;-83
2021/09/30 11:42:25;;;;;;;2.63;1.10;;;;;;;15.15;54.04;101701.44;5083759;28;20219;-83
2021/09/30 11:45:00;;;;;;;2.93;1.30;;;;;;;15.14;54.25;101694.34;5087869;28;20224;-82
2021/09/30 11:47:29;;;;;;;4.97;1.20;;;;;;;15.15;54.52;101696.06;5081954;28;20227;-83
2021/09/30 11:49:57;;;;;;;3.93;1.50;;;;;;;15.14;54.27;101698.84;5082757;28;20204;-81
2021/09/30 11:52:24;;;;;;;5.77;1.33;;;;;;;15.11;54.24;101697.22;5082202;28;20205;-83
2021/09/30 11:54:51;;;;;;;3.87;1.13;;;;;;;15.10;54.45;101683.91;5082436;28;20204;-82
2021/09/30 11:57:21;;;;;;;5.60;1.50;;;;;;;15.06;53.89;101693.97;5083753;28;20227;-82
2021/09/30 11:59:48;;;;;;;4.13;1.30;;;;;;;15.07;54.09;101690.34;5085122;28;20205;-82
2021/09/30 12:02:15;;;;;;;5.03;1.37;;;;;;;15.11;53.77;101686.50;5085369;28;20204;-81
2021/09/30 12:04:44;;;;;;;4.53;1.27;;;;;;;15.12;54.09;101685.53;5077179;28;20234;-80
2021/09/30 12:07:19;;;;;;;6.07;1.37;;;;;;;15.14;53.74;101691.66;5084430;28;20629;-80
2021/09/30 12:09:47;;;;;;;6.30;2.67;;;;;;;15.14;53.66;101691.66;5089906;28;20228;-81
2021/09/30 12:12:13;;;;;;;6.63;1.80;;;;;;;15.18;53.39;101679.78;5090125;28;20197;-79
2021/09/30 12:14:44;;;;;;;5.10;1.60;;;;;;;15.19;53.21;101692.25;5089092;28;20211;-81
2021/09/30 12:17:13;;;;;;;3.57;1.40;;;;;;;15.14;52.58;101683.63;5079804;28;20228;-81
2021/09/30 12:19:41;;;;;;;6.53;1.60;;;;;;;15.15;52.37;101688.03;5075024;28;20197;-81
2021/09/30 12:22:10;;;;;;;5.60;1.70;;;;;;;15.14;52.65;101699.72;5088772;28;20209;-82
2021/09/30 12:24:42;;;;;;;4.37;1.30;;;;;;;15.17;53.03;101688.78;5080602;28;20288;-83
2021/09/30 12:27:09;;;;;;;3.03;1.67;;;;;;;15.15;53.04;101698.75;5081329;28;20220;-80
2021/09/30 12:29:42;;;;;;;7.93;2.37;;;;;;;15.15;52.98;101705.94;5080017;28;20201;-82
2021/09/30 12:32:10;;;;;;;5.50;1.57;;;;;;;15.14;53.20;101697.03;5080142;28;20305;-83
2021/09/30 12:34:38;;;;;;;5.57;1.70;;;;;;;15.17;53.37;101696.84;5084338;28;20203;-82
2021/09/30 12:37:10;;;;;;;5.27;1.73;;;;;;;15.20;53.29;101691.28;5085862;28;20823;-84
2021/09/30 12:39:42;;;;;;;5.10;1.37;;;;;;;15.23;52.94;101691.03;5089206;28;20300;-82
2021/09/30 12:42:14;;;;;;;6.33;1.57;;;;;;;15.25;53.03;101691.81;5083540;28;20284;-82
2021/09/30 12:44:49;;;;;;;4.57;1.97;;;;;;;15.30;52.98;101680.78;5084076;28;20205;-86
2021/09/30 12:47:38;;;;;;;4.13;1.47;;;;;;;15.39;53.28;101676.63;5082231;28;20333;-83
2021/09/30 12:50:07;;;;;;;4.10;1.50;;;;;;;15.46;52.80;101678.78;5084331;28;20209;-84
2021/09/30 12:52:34;;;;;;;8.77;1.40;;;;;;;15.54;52.76;101683.66;5086182;28;20667;-84
2021/09/30 12:55:04;;;;;;;3.90;1.40;;;;;;;15.65;52.76;101672.19;5082645;28;20210;-84
2021/09/30 12:57:35;;;;;;;5.63;1.33;;;;;;;15.73;52.56;101675.22;5089629;28;20660;-83
2021/09/30 13:00:07;;;;;;;2.50;1.03;;;;;;;15.80;51.96;101681.88;5088618;28;20236;-84
2021/09/30 13:02:34;;;;;;;4.63;1.03;;;;;;;15.82;51.55;101683.50;5088872;28;20327;-85
2021/09/30 13:05:00;;;;;;;5.53;1.33;;;;;;;15.80;50.86;101676.50;5085266;28;20657;-86
2021/09/30 13:07:43;;;;;;;2.30;0.90;;;;;;;15.75;50.36;101681.38;5084225;28;20227;-84
2021/09/30 13:10:11;;;;;;;3.93;1.00;;;;;;;15.67;50.33;101671.13;5088376;28;20757;-84
2021/09/30 13:12:37;;;;;;;3.07;1.00;;;;;;;15.69;50.46;101677.25;5090667;28;20732;-84
2021/09/30 13:15:06;;;;;;;2.57;0.93;;;;;;;15.69;50.54;101676.41;5084987;28;20309;-83
2021/09/30 13:17:34;;;;;;;3.87;1.37;;;;;;;15.68;51.03;101678.22;5090936;28;20225;-84
2021/09/30 13:20:02;;;;;;;4.40;1.33;;;;;;;15.68;50.95;101670.16;5086460;28;20206;-81
2021/09/30 13:22:30;;;;;;;4.53;1.40;;;;;;;15.68;51.21;101670.16;5080417;28;20229;-83
2021/09/30 13:24:58;;;;;;;4.50;1.30;;;;;;;15.68;51.20;101669.31;5086512;28;20208;-82
2021/09/30 13:27:28;;;;;;;3.67;1.37;;;;;;;15.65;50.98;101667.69;5086166;28;20249;-83
2021/09/30 13:29:55;;;;;;;4.07;1.47;;;;;;;15.62;51.34;101659.84;5084803;28;20206;-81
2021/09/30 13:32:26;;;;;;;4.47;1.60;;;;;;;15.61;51.19;101660.81;5083328;28;20217;-83
2021/09/30 13:34:53;;;;;;;5.00;1.70;;;;;;;15.65;51.62;101666.81;5086075;28;20288;-84
2021/09/30 13:37:19;;;;;;;5.53;1.10;;;;;;;15.71;51.77;101656.53;5083525;28;20220;-83
2021/09/30 13:39:46;;;;;;;4.93;1.43;;;;;;;15.77;51.40;101647.16;5086294;28;20204;-83
2021/09/30 13:42:14;;;;;;;4.07;1.50;;;;;;;15.86;51.43;101647.41;5081226;28;20201;-81
2021/09/30 13:44:40;;;;;;;3.73;1.00;;;;;;;15.88;51.11;101637.41;5082321;28;20199;-84
2021/09/30 13:47:08;;;;;;;6.23;1.30;;;;;;;15.91;50.79;101653.34;5086071;28;20231;-84
2021/09/30 13:49:36;;;;;;;2.40;1.00;;;;;;;15.95;50.18;101646.75;5083374;28;20665;-84
2021/09/30 13:52:03;;;;;;;5.53;1.10;;;;;;;15.94;50.01;101633.47;5078742;28;20214;-83
2021/09/30 13:54:30;;;;;;;3.17;0.90;;;;;;;15.96;49.96;101644.94;5079031;28;20200;-83
2021/09/30 13:56:57;;;;;;;3.80;0.90;;;;;;;15.95;49.99;101649.44;5081763;28;20219;-84
2021/09/30 13:59:29;;;;;;;2.63;0.90;;;;;;;15.95;50.15;101640.50;5085820;28;20305;-83
2021/09/30 14:02:01;;;;;;;3.37;1.03;;;;;;;15.96;49.61;101639.56;5088333;28;20214;-83
2021/09/30 14:04:28;;;;;;;3.77;1.00;;;;;;;15.98;49.86;101641.16;5082904;28;20220;-85
2021/09/30 14:06:58;;;;;;;4.93;1.27;;;;;;;15.96;49.71;101634.19;5085353;28;20608;-82